sensor_id;sensor_type;location;lat;lon;timestamp;P1;durP1;ratioP1;P2;durP2;ratioP2
12625;SDS011;6378;42.684;23.372;2023-04-16T00:00:03;5.38;;;4.40;;
12625;SDS011;6378;42.684;23.372;2023-04-16T00:02:29;6.30;;;4.93;;
12625;SDS011;6378;42.684;23.372;2023-04-16T00:04:54;5.88;;;4.47;;
12625;SDS011;6378;42.684;23.372;2023-04-16T00:07:20;7.43;;;4.47;;
12625;SDS011;6378;42.684;23.372;2023-04-16T00:09:45;10.13;;;5.15;;
12625;SDS011;6378;42.684;23.372;2023-04-16T00:12:11;6.47;;;4.43;;
12625;SDS011;6378;42.684;23.372;2023-04-16T00:14:36;8.10;;;4.80;;
12625;SDS011;6378;42.684;23.372;2023-04-16T00:17:02;5.78;;;4.20;;
12625;SDS011;6378;42.684;23.372;2023-04-16T00:19:27;7.63;;;4.43;;
12625;SDS011;6378;42.684;23.372;2023-04-16T00:21:52;7.30;;;4.43;;
12625;SDS011;6378;42.684;23.372;2023-04-16T00:24:18;7.18;;;4.63;;
12625;SDS011;6378;42.684;23.372;2023-04-16T00:26:43;6.20;;;4.95;;
12625;SDS011;6378;42.684;23.372;2023-04-16T00:29:10;8.20;;;4.95;;
12625;SDS011;6378;42.684;23.372;2023-04-16T00:31:36;5.70;;;4.70;;
12625;SDS011;6378;42.684;23.372;2023-04-16T00:34:01;7.68;;;4.32;;
12625;SDS011;6378;42.684;23.372;2023-04-16T00:36:27;6.25;;;4.10;;
12625;SDS011;6378;42.684;23.372;2023-04-16T00:38:53;5.43;;;4.20;;
12625;SDS011;6378;42.684;23.372;2023-04-16T00:41:20;7.35;;;4.10;;
12625;SDS011;6378;42.684;23.372;2023-04-16T00:43:47;6.00;;;3.92;;
12625;SDS011;6378;42.684;23.372;2023-04-16T00:46:12;6.88;;;4.55;;
12625;SDS011;6378;42.684;23.372;2023-04-16T00:48:40;6.60;;;4.40;;
12625;SDS011;6378;42.684;23.372;2023-04-16T00:51:09;5.60;;;3.90;;
12625;SDS011;6378;42.684;23.372;2023-04-16T00:53:35;8.02;;;4.38;;
12625;SDS011;6378;42.684;23.372;2023-04-16T00:56:02;5.82;;;3.75;;
12625;SDS011;6378;42.684;23.372;2023-04-16T00:58:29;5.85;;;3.78;;
12625;SDS011;6378;42.684;23.372;2023-04-16T01:00:55;6.95;;;3.92;;
12625;SDS011;6378;42.684;23.372;2023-04-16T01:03:21;6.55;;;4.45;;
12625;SDS011;6378;42.684;23.372;2023-04-16T01:05:47;7.70;;;4.50;;
12625;SDS011;6378;42.684;23.372;2023-04-16T01:08:16;4.65;;;4.00;;
12625;SDS011;6378;42.684;23.372;2023-04-16T01:10:43;9.03;;;4.77;;
12625;SDS011;6378;42.684;23.372;2023-04-16T01:13:09;12.00;;;6.90;;
12625;SDS011;6378;42.684;23.372;2023-04-16T01:15:35;9.27;;;6.47;;
12625;SDS011;6378;42.684;23.372;2023-04-16T01:18:00;10.05;;;7.20;;
12625;SDS011;6378;42.684;23.372;2023-04-16T01:20:26;10.68;;;7.60;;
12625;SDS011;6378;42.684;23.372;2023-04-16T01:22:51;11.73;;;6.90;;
12625;SDS011;6378;42.684;23.372;2023-04-16T01:25:17;11.00;;;7.10;;
12625;SDS011;6378;42.684;23.372;2023-04-16T01:27:42;13.30;;;7.90;;
12625;SDS011;6378;42.684;23.372;2023-04-16T01:30:08;11.25;;;7.65;;
12625;SDS011;6378;42.684;23.372;2023-04-16T01:32:33;9.50;;;7.70;;
12625;SDS011;6378;42.684;23.372;2023-04-16T01:34:59;11.18;;;8.43;;
12625;SDS011;6378;42.684;23.372;2023-04-16T01:37:24;11.63;;;9.10;;
12625;SDS011;6378;42.684;23.372;2023-04-16T01:39:50;10.47;;;8.53;;
12625;SDS011;6378;42.684;23.372;2023-04-16T01:42:16;13.27;;;9.60;;
12625;SDS011;6378;42.684;23.372;2023-04-16T01:44:41;12.17;;;9.03;;
12625;SDS011;6378;42.684;23.372;2023-04-16T01:47:06;15.37;;;8.87;;
12625;SDS011;6378;42.684;23.372;2023-04-16T01:49:32;11.03;;;8.70;;
12625;SDS011;6378;42.684;23.372;2023-04-16T01:51:58;12.37;;;8.57;;
12625;SDS011;6378;42.684;23.372;2023-04-16T01:54:24;11.27;;;8.33;;
12625;SDS011;6378;42.684;23.372;2023-04-16T01:56:50;13.60;;;8.10;;
12625;SDS011;6378;42.684;23.372;2023-04-16T01:59:15;14.97;;;9.83;;
12625;SDS011;6378;42.684;23.372;2023-04-16T02:01:40;12.03;;;8.80;;
12625;SDS011;6378;42.684;23.372;2023-04-16T02:04:06;13.07;;;9.77;;
12625;SDS011;6378;42.684;23.372;2023-04-16T02:06:32;5.75;;;4.03;;
12625;SDS011;6378;42.684;23.372;2023-04-16T02:08:57;11.25;;;7.78;;
12625;SDS011;6378;42.684;23.372;2023-04-16T02:11:23;7.75;;;4.75;;
12625;SDS011;6378;42.684;23.372;2023-04-16T02:13:48;6.78;;;4.32;;
12625;SDS011;6378;42.684;23.372;2023-04-16T02:16:13;6.47;;;3.67;;
12625;SDS011;6378;42.684;23.372;2023-04-16T02:18:39;6.43;;;4.90;;
12625;SDS011;6378;42.684;23.372;2023-04-16T02:21:05;5.83;;;4.23;;
12625;SDS011;6378;42.684;23.372;2023-04-16T02:23:31;7.13;;;3.83;;
12625;SDS011;6378;42.684;23.372;2023-04-16T02:25:57;5.60;;;4.13;;
12625;SDS011;6378;42.684;23.372;2023-04-16T02:28:22;6.53;;;4.23;;
12625;SDS011;6378;42.684;23.372;2023-04-16T02:30:48;5.57;;;3.42;;
12625;SDS011;6378;42.684;23.372;2023-04-16T02:33:13;6.88;;;3.70;;
12625;SDS011;6378;42.684;23.372;2023-04-16T02:35:39;5.40;;;3.35;;
12625;SDS011;6378;42.684;23.372;2023-04-16T02:38:04;4.85;;;3.55;;
12625;SDS011;6378;42.684;23.372;2023-04-16T02:40:31;5.40;;;3.55;;
12625;SDS011;6378;42.684;23.372;2023-04-16T02:42:56;6.43;;;3.50;;
12625;SDS011;6378;42.684;23.372;2023-04-16T02:45:22;5.97;;;3.50;;
12625;SDS011;6378;42.684;23.372;2023-04-16T02:47:48;4.05;;;3.30;;
12625;SDS011;6378;42.684;23.372;2023-04-16T02:50:14;5.17;;;3.40;;
12625;SDS011;6378;42.684;23.372;2023-04-16T02:52:40;5.87;;;3.60;;
12625;SDS011;6378;42.684;23.372;2023-04-16T02:55:05;5.53;;;3.30;;
12625;SDS011;6378;42.684;23.372;2023-04-16T02:57:31;4.50;;;3.40;;
12625;SDS011;6378;42.684;23.372;2023-04-16T02:59:57;5.93;;;3.30;;
12625;SDS011;6378;42.684;23.372;2023-04-16T03:02:23;5.07;;;3.63;;
12625;SDS011;6378;42.684;23.372;2023-04-16T03:04:48;4.17;;;3.30;;
12625;SDS011;6378;42.684;23.372;2023-04-16T03:07:14;5.10;;;3.70;;
12625;SDS011;6378;42.684;23.372;2023-04-16T03:09:40;5.37;;;3.00;;
12625;SDS011;6378;42.684;23.372;2023-04-16T03:12:05;5.15;;;3.40;;
12625;SDS011;6378;42.684;23.372;2023-04-16T03:14:31;4.80;;;3.07;;
12625;SDS011;6378;42.684;23.372;2023-04-16T03:16:56;5.03;;;3.40;;
12625;SDS011;6378;42.684;23.372;2023-04-16T03:19:22;4.87;;;3.37;;
12625;SDS011;6378;42.684;23.372;2023-04-16T03:21:47;5.97;;;3.40;;
12625;SDS011;6378;42.684;23.372;2023-04-16T03:24:13;6.27;;;3.53;;
12625;SDS011;6378;42.684;23.372;2023-04-16T03:26:38;8.67;;;4.00;;
12625;SDS011;6378;42.684;23.372;2023-04-16T03:29:04;5.33;;;3.53;;
12625;SDS011;6378;42.684;23.372;2023-04-16T03:31:29;4.57;;;3.43;;
12625;SDS011;6378;42.684;23.372;2023-04-16T03:33:55;7.50;;;3.77;;
12625;SDS011;6378;42.684;23.372;2023-04-16T03:36:21;5.37;;;3.80;;
12625;SDS011;6378;42.684;23.372;2023-04-16T03:38:47;5.33;;;3.73;;
12625;SDS011;6378;42.684;23.372;2023-04-16T03:41:13;5.83;;;3.37;;
12625;SDS011;6378;42.684;23.372;2023-04-16T03:43:38;6.33;;;3.90;;
12625;SDS011;6378;42.684;23.372;2023-04-16T03:46:04;4.40;;;3.03;;
12625;SDS011;6378;42.684;23.372;2023-04-16T03:48:29;5.13;;;3.30;;
12625;SDS011;6378;42.684;23.372;2023-04-16T03:50:55;5.40;;;3.57;;
12625;SDS011;6378;42.684;23.372;2023-04-16T03:53:20;11.60;;;6.03;;
12625;SDS011;6378;42.684;23.372;2023-04-16T03:55:48;12.00;;;7.27;;
12625;SDS011;6378;42.684;23.372;2023-04-16T03:58:15;13.97;;;8.17;;
12625;SDS011;6378;42.684;23.372;2023-04-16T04:00:41;12.93;;;9.30;;
12625;SDS011;6378;42.684;23.372;2023-04-16T04:03:07;11.30;;;8.43;;
12625;SDS011;6378;42.684;23.372;2023-04-16T04:05:36;13.17;;;8.60;;
12625;SDS011;6378;42.684;23.372;2023-04-16T04:08:05;13.13;;;8.77;;
12625;SDS011;6378;42.684;23.372;2023-04-16T04:10:31;12.17;;;8.57;;
12625;SDS011;6378;42.684;23.372;2023-04-16T04:12:57;12.53;;;8.97;;
12625;SDS011;6378;42.684;23.372;2023-04-16T04:15:23;13.80;;;8.47;;
12625;SDS011;6378;42.684;23.372;2023-04-16T04:17:48;15.60;;;8.77;;
12625;SDS011;6378;42.684;23.372;2023-04-16T04:20:13;11.47;;;8.53;;
12625;SDS011;6378;42.684;23.372;2023-04-16T04:22:39;11.20;;;7.97;;
12625;SDS011;6378;42.684;23.372;2023-04-16T04:25:05;14.43;;;8.18;;
12625;SDS011;6378;42.684;23.372;2023-04-16T04:27:30;14.37;;;7.80;;
12625;SDS011;6378;42.684;23.372;2023-04-16T04:29:56;10.17;;;7.40;;
12625;SDS011;6378;42.684;23.372;2023-04-16T04:32:22;13.40;;;7.20;;
12625;SDS011;6378;42.684;23.372;2023-04-16T04:34:47;13.30;;;7.57;;
12625;SDS011;6378;42.684;23.372;2023-04-16T04:37:12;12.45;;;7.15;;
12625;SDS011;6378;42.684;23.372;2023-04-16T04:39:38;14.13;;;7.30;;
12625;SDS011;6378;42.684;23.372;2023-04-16T04:42:03;11.80;;;7.20;;
12625;SDS011;6378;42.684;23.372;2023-04-16T04:44:29;10.37;;;7.40;;
12625;SDS011;6378;42.684;23.372;2023-04-16T04:46:54;10.47;;;6.97;;
12625;SDS011;6378;42.684;23.372;2023-04-16T04:49:20;13.23;;;7.40;;
12625;SDS011;6378;42.684;23.372;2023-04-16T04:51:45;9.83;;;6.87;;
12625;SDS011;6378;42.684;23.372;2023-04-16T04:54:11;10.30;;;7.10;;
12625;SDS011;6378;42.684;23.372;2023-04-16T04:56:37;14.57;;;7.80;;
12625;SDS011;6378;42.684;23.372;2023-04-16T04:59:02;12.60;;;8.03;;
12625;SDS011;6378;42.684;23.372;2023-04-16T05:01:28;10.38;;;7.40;;
12625;SDS011;6378;42.684;23.372;2023-04-16T05:03:53;12.15;;;7.68;;
12625;SDS011;6378;42.684;23.372;2023-04-16T05:06:19;14.00;;;9.03;;
12625;SDS011;6378;42.684;23.372;2023-04-16T05:08:44;16.37;;;8.87;;
12625;SDS011;6378;42.684;23.372;2023-04-16T05:11:09;14.87;;;9.60;;
12625;SDS011;6378;42.684;23.372;2023-04-16T05:13:35;15.57;;;10.50;;
12625;SDS011;6378;42.684;23.372;2023-04-16T05:16:00;15.63;;;9.17;;
12625;SDS011;6378;42.684;23.372;2023-04-16T05:18:26;13.77;;;8.90;;
12625;SDS011;6378;42.684;23.372;2023-04-16T05:20:51;16.03;;;9.20;;
12625;SDS011;6378;42.684;23.372;2023-04-16T05:23:17;14.37;;;8.90;;
12625;SDS011;6378;42.684;23.372;2023-04-16T05:25:42;13.97;;;10.07;;
12625;SDS011;6378;42.684;23.372;2023-04-16T05:28:08;16.27;;;10.07;;
12625;SDS011;6378;42.684;23.372;2023-04-16T05:30:34;14.43;;;9.23;;
12625;SDS011;6378;42.684;23.372;2023-04-16T05:32:59;13.40;;;8.45;;
12625;SDS011;6378;42.684;23.372;2023-04-16T05:35:25;15.27;;;8.90;;
12625;SDS011;6378;42.684;23.372;2023-04-16T05:37:50;15.15;;;8.82;;
12625;SDS011;6378;42.684;23.372;2023-04-16T05:40:16;12.20;;;8.00;;
12625;SDS011;6378;42.684;23.372;2023-04-16T05:42:41;15.15;;;7.53;;
12625;SDS011;6378;42.684;23.372;2023-04-16T05:45:07;16.70;;;9.00;;
12625;SDS011;6378;42.684;23.372;2023-04-16T05:47:32;11.63;;;8.45;;
12625;SDS011;6378;42.684;23.372;2023-04-16T05:49:58;11.18;;;7.72;;
12625;SDS011;6378;42.684;23.372;2023-04-16T05:52:23;11.30;;;6.80;;
12625;SDS011;6378;42.684;23.372;2023-04-16T05:54:49;9.00;;;6.38;;
12625;SDS011;6378;42.684;23.372;2023-04-16T05:57:14;8.73;;;6.32;;
12625;SDS011;6378;42.684;23.372;2023-04-16T05:59:39;11.05;;;6.55;;
12625;SDS011;6378;42.684;23.372;2023-04-16T06:02:05;11.30;;;6.70;;
12625;SDS011;6378;42.684;23.372;2023-04-16T06:04:31;10.02;;;5.63;;
12625;SDS011;6378;42.684;23.372;2023-04-16T06:06:56;9.98;;;5.95;;
12625;SDS011;6378;42.684;23.372;2023-04-16T06:09:21;10.00;;;5.95;;
12625;SDS011;6378;42.684;23.372;2023-04-16T06:11:47;9.77;;;6.40;;
12625;SDS011;6378;42.684;23.372;2023-04-16T06:14:13;9.30;;;5.95;;
12625;SDS011;6378;42.684;23.372;2023-04-16T06:16:38;9.80;;;6.57;;
12625;SDS011;6378;42.684;23.372;2023-04-16T06:19:03;10.05;;;5.82;;
12625;SDS011;6378;42.684;23.372;2023-04-16T06:21:29;10.27;;;5.53;;
12625;SDS011;6378;42.684;23.372;2023-04-16T06:23:55;9.70;;;5.57;;
12625;SDS011;6378;42.684;23.372;2023-04-16T06:26:21;9.95;;;5.50;;
12625;SDS011;6378;42.684;23.372;2023-04-16T06:28:46;11.27;;;5.80;;
12625;SDS011;6378;42.684;23.372;2023-04-16T06:31:12;8.40;;;5.80;;
12625;SDS011;6378;42.684;23.372;2023-04-16T06:33:37;14.68;;;9.05;;
12625;SDS011;6378;42.684;23.372;2023-04-16T06:36:02;7.63;;;5.53;;
12625;SDS011;6378;42.684;23.372;2023-04-16T06:38:28;6.57;;;4.80;;
12625;SDS011;6378;42.684;23.372;2023-04-16T06:40:53;7.05;;;4.78;;
12625;SDS011;6378;42.684;23.372;2023-04-16T06:43:19;6.63;;;4.60;;
12625;SDS011;6378;42.684;23.372;2023-04-16T06:45:44;6.47;;;4.43;;
12625;SDS011;6378;42.684;23.372;2023-04-16T06:48:10;5.90;;;4.35;;
12625;SDS011;6378;42.684;23.372;2023-04-16T06:50:35;5.80;;;4.68;;
12625;SDS011;6378;42.684;23.372;2023-04-16T06:53:01;9.05;;;5.30;;
12625;SDS011;6378;42.684;23.372;2023-04-16T06:55:27;8.63;;;5.75;;
12625;SDS011;6378;42.684;23.372;2023-04-16T06:57:52;11.40;;;7.45;;
12625;SDS011;6378;42.684;23.372;2023-04-16T07:00:17;9.50;;;8.20;;
12625;SDS011;6378;42.684;23.372;2023-04-16T07:02:43;9.52;;;7.28;;
12625;SDS011;6378;42.684;23.372;2023-04-16T07:05:08;9.80;;;7.45;;
12625;SDS011;6378;42.684;23.372;2023-04-16T07:07:34;7.40;;;5.40;;
12625;SDS011;6378;42.684;23.372;2023-04-16T07:09:59;11.13;;;6.95;;
12625;SDS011;6378;42.684;23.372;2023-04-16T07:12:25;10.13;;;6.22;;
12625;SDS011;6378;42.684;23.372;2023-04-16T07:14:51;10.52;;;5.85;;
12625;SDS011;6378;42.684;23.372;2023-04-16T07:17:16;6.93;;;5.18;;
12625;SDS011;6378;42.684;23.372;2023-04-16T07:19:42;12.80;;;6.47;;
12625;SDS011;6378;42.684;23.372;2023-04-16T07:22:08;10.98;;;5.03;;
12625;SDS011;6378;42.684;23.372;2023-04-16T07:24:33;6.60;;;4.78;;
12625;SDS011;6378;42.684;23.372;2023-04-16T07:26:59;6.32;;;4.32;;
12625;SDS011;6378;42.684;23.372;2023-04-16T07:29:25;7.80;;;4.05;;
12625;SDS011;6378;42.684;23.372;2023-04-16T07:31:50;4.60;;;3.58;;
12625;SDS011;6378;42.684;23.372;2023-04-16T07:34:16;7.55;;;3.90;;
12625;SDS011;6378;42.684;23.372;2023-04-16T07:36:41;5.63;;;4.00;;
12625;SDS011;6378;42.684;23.372;2023-04-16T07:39:06;7.72;;;4.28;;
12625;SDS011;6378;42.684;23.372;2023-04-16T07:41:32;6.95;;;3.90;;
12625;SDS011;6378;42.684;23.372;2023-04-16T07:43:58;8.73;;;5.30;;
12625;SDS011;6378;42.684;23.372;2023-04-16T07:46:23;10.38;;;4.80;;
12625;SDS011;6378;42.684;23.372;2023-04-16T07:48:49;6.75;;;4.28;;
12625;SDS011;6378;42.684;23.372;2023-04-16T07:51:15;8.20;;;5.32;;
12625;SDS011;6378;42.684;23.372;2023-04-16T07:53:40;4.88;;;3.95;;
12625;SDS011;6378;42.684;23.372;2023-04-16T07:56:07;7.60;;;4.40;;
12625;SDS011;6378;42.684;23.372;2023-04-16T07:58:33;7.30;;;3.97;;
12625;SDS011;6378;42.684;23.372;2023-04-16T08:00:58;8.93;;;4.75;;
12625;SDS011;6378;42.684;23.372;2023-04-16T08:03:24;5.43;;;3.80;;
12625;SDS011;6378;42.684;23.372;2023-04-16T08:05:49;5.45;;;3.92;;
12625;SDS011;6378;42.684;23.372;2023-04-16T08:08:15;8.60;;;4.30;;
12625;SDS011;6378;42.684;23.372;2023-04-16T08:10:40;6.55;;;3.70;;
12625;SDS011;6378;42.684;23.372;2023-04-16T08:13:06;7.55;;;3.92;;
12625;SDS011;6378;42.684;23.372;2023-04-16T08:15:31;6.03;;;4.18;;
12625;SDS011;6378;42.684;23.372;2023-04-16T08:17:56;8.57;;;4.65;;
12625;SDS011;6378;42.684;23.372;2023-04-16T08:20:22;5.93;;;4.20;;
12625;SDS011;6378;42.684;23.372;2023-04-16T08:22:47;8.40;;;4.25;;
12625;SDS011;6378;42.684;23.372;2023-04-16T08:25:13;6.03;;;3.90;;
12625;SDS011;6378;42.684;23.372;2023-04-16T08:27:39;5.05;;;3.60;;
12625;SDS011;6378;42.684;23.372;2023-04-16T08:30:05;8.15;;;3.70;;
12625;SDS011;6378;42.684;23.372;2023-04-16T08:32:31;8.82;;;3.90;;
12625;SDS011;6378;42.684;23.372;2023-04-16T08:34:57;7.28;;;4.60;;
12625;SDS011;6378;42.684;23.372;2023-04-16T08:37:22;6.38;;;4.05;;
12625;SDS011;6378;42.684;23.372;2023-04-16T08:39:48;5.20;;;3.83;;
12625;SDS011;6378;42.684;23.372;2023-04-16T08:42:23;7.65;;;3.97;;
12625;SDS011;6378;42.684;23.372;2023-04-16T08:45:05;6.35;;;4.15;;
12625;SDS011;6378;42.684;23.372;2023-04-16T08:47:33;15.95;;;9.75;;
12625;SDS011;6378;42.684;23.372;2023-04-16T08:50:01;8.23;;;4.40;;
12625;SDS011;6378;42.684;23.372;2023-04-16T08:52:27;7.10;;;4.18;;
12625;SDS011;6378;42.684;23.372;2023-04-16T08:54:56;5.40;;;4.07;;
12625;SDS011;6378;42.684;23.372;2023-04-16T08:57:25;7.25;;;3.92;;
12625;SDS011;6378;42.684;23.372;2023-04-16T08:59:57;5.93;;;3.78;;
12625;SDS011;6378;42.684;23.372;2023-04-16T09:02:25;5.10;;;3.53;;
12625;SDS011;6378;42.684;23.372;2023-04-16T09:04:51;4.40;;;2.90;;
12625;SDS011;6378;42.684;23.372;2023-04-16T09:07:18;5.35;;;3.20;;
12625;SDS011;6378;42.684;23.372;2023-04-16T09:09:44;7.72;;;3.33;;
12625;SDS011;6378;42.684;23.372;2023-04-16T09:12:13;4.32;;;3.30;;
12625;SDS011;6378;42.684;23.372;2023-04-16T09:14:39;3.63;;;2.90;;
12625;SDS011;6378;42.684;23.372;2023-04-16T09:17:07;5.05;;;3.50;;
12625;SDS011;6378;42.684;23.372;2023-04-16T09:19:33;8.05;;;3.83;;
12625;SDS011;6378;42.684;23.372;2023-04-16T09:21:58;6.07;;;3.60;;
12625;SDS011;6378;42.684;23.372;2023-04-16T09:24:24;6.20;;;4.03;;
12625;SDS011;6378;42.684;23.372;2023-04-16T09:26:50;5.43;;;3.13;;
12625;SDS011;6378;42.684;23.372;2023-04-16T09:29:34;3.85;;;3.00;;
12625;SDS011;6378;42.684;23.372;2023-04-16T09:32:01;6.28;;;3.83;;
12625;SDS011;6378;42.684;23.372;2023-04-16T09:34:28;6.10;;;3.05;;
12625;SDS011;6378;42.684;23.372;2023-04-16T09:36:55;9.45;;;3.50;;
12625;SDS011;6378;42.684;23.372;2023-04-16T09:39:37;6.72;;;3.55;;
12625;SDS011;6378;42.684;23.372;2023-04-16T09:42:04;5.72;;;3.65;;
12625;SDS011;6378;42.684;23.372;2023-04-16T09:44:36;4.60;;;2.92;;
12625;SDS011;6378;42.684;23.372;2023-04-16T09:47:06;7.35;;;4.30;;
12625;SDS011;6378;42.684;23.372;2023-04-16T09:49:33;4.88;;;3.58;;
12625;SDS011;6378;42.684;23.372;2023-04-16T09:52:03;4.10;;;3.10;;
12625;SDS011;6378;42.684;23.372;2023-04-16T09:54:37;6.35;;;4.18;;
12625;SDS011;6378;42.684;23.372;2023-04-16T09:57:06;6.60;;;3.83;;
12625;SDS011;6378;42.684;23.372;2023-04-16T09:59:34;4.95;;;3.40;;
12625;SDS011;6378;42.684;23.372;2023-04-16T10:01:59;4.50;;;3.10;;
12625;SDS011;6378;42.684;23.372;2023-04-16T10:04:25;8.70;;;3.25;;
12625;SDS011;6378;42.684;23.372;2023-04-16T10:07:04;6.13;;;2.92;;
12625;SDS011;6378;42.684;23.372;2023-04-16T10:09:30;4.00;;;2.72;;
12625;SDS011;6378;42.684;23.372;2023-04-16T10:11:57;6.55;;;3.47;;
12625;SDS011;6378;42.684;23.372;2023-04-16T10:14:23;4.78;;;3.40;;
12625;SDS011;6378;42.684;23.372;2023-04-16T10:16:48;5.38;;;2.92;;
12625;SDS011;6378;42.684;23.372;2023-04-16T10:19:14;9.60;;;3.40;;
12625;SDS011;6378;42.684;23.372;2023-04-16T10:21:40;5.25;;;2.88;;
12625;SDS011;6378;42.684;23.372;2023-04-16T10:24:06;7.57;;;3.72;;
12625;SDS011;6378;42.684;23.372;2023-04-16T10:26:32;4.15;;;3.13;;
12625;SDS011;6378;42.684;23.372;2023-04-16T10:29:00;3.83;;;2.83;;
12625;SDS011;6378;42.684;23.372;2023-04-16T10:31:26;9.07;;;3.42;;
12625;SDS011;6378;42.684;23.372;2023-04-16T10:33:52;4.97;;;2.85;;
12625;SDS011;6378;42.684;23.372;2023-04-16T10:36:23;5.18;;;2.85;;
12625;SDS011;6378;42.684;23.372;2023-04-16T10:38:50;4.22;;;2.72;;
12625;SDS011;6378;42.684;23.372;2023-04-16T10:41:20;7.70;;;4.25;;
12625;SDS011;6378;42.684;23.372;2023-04-16T10:43:47;5.63;;;3.00;;
12625;SDS011;6378;42.684;23.372;2023-04-16T10:46:23;6.45;;;4.32;;
12625;SDS011;6378;42.684;23.372;2023-04-16T10:48:59;5.25;;;3.17;;
12625;SDS011;6378;42.684;23.372;2023-04-16T10:51:28;5.53;;;2.83;;
12625;SDS011;6378;42.684;23.372;2023-04-16T10:54:31;6.55;;;3.30;;
12625;SDS011;6378;42.684;23.372;2023-04-16T10:56:51;6.65;;;3.35;;
12625;SDS011;6378;42.684;23.372;2023-04-16T10:59:19;5.32;;;3.60;;
12625;SDS011;6378;42.684;23.372;2023-04-16T11:01:46;6.32;;;2.85;;
12625;SDS011;6378;42.684;23.372;2023-04-16T11:07:00;5.22;;;3.05;;
12625;SDS011;6378;42.684;23.372;2023-04-16T11:17:43;3.53;;;2.42;;
12625;SDS011;6378;42.684;23.372;2023-04-16T11:20:14;4.50;;;2.50;;
12625;SDS011;6378;42.684;23.372;2023-04-16T11:22:41;3.65;;;2.50;;
12625;SDS011;6378;42.684;23.372;2023-04-16T11:25:07;4.13;;;2.38;;
12625;SDS011;6378;42.684;23.372;2023-04-16T11:27:33;3.67;;;2.55;;
12625;SDS011;6378;42.684;23.372;2023-04-16T11:30:07;5.95;;;2.97;;
12625;SDS011;6378;42.684;23.372;2023-04-16T11:32:34;4.22;;;2.60;;
12625;SDS011;6378;42.684;23.372;2023-04-16T11:35:02;4.55;;;2.80;;
12625;SDS011;6378;42.684;23.372;2023-04-16T11:37:33;6.47;;;2.75;;
12625;SDS011;6378;42.684;23.372;2023-04-16T11:40:00;4.30;;;2.53;;
12625;SDS011;6378;42.684;23.372;2023-04-16T11:42:28;3.28;;;2.40;;
12625;SDS011;6378;42.684;23.372;2023-04-16T11:44:54;4.38;;;3.05;;
12625;SDS011;6378;42.684;23.372;2023-04-16T11:47:22;3.85;;;3.08;;
12625;SDS011;6378;42.684;23.372;2023-04-16T11:49:48;4.30;;;2.83;;
12625;SDS011;6378;42.684;23.372;2023-04-16T11:52:23;4.35;;;2.67;;
12625;SDS011;6378;42.684;23.372;2023-04-16T11:54:56;3.78;;;3.17;;
12625;SDS011;6378;42.684;23.372;2023-04-16T11:57:23;3.30;;;3.00;;
12625;SDS011;6378;42.684;23.372;2023-04-16T11:59:49;4.18;;;2.40;;
12625;SDS011;6378;42.684;23.372;2023-04-16T12:02:15;5.30;;;2.92;;
12625;SDS011;6378;42.684;23.372;2023-04-16T12:04:41;6.68;;;2.40;;
12625;SDS011;6378;42.684;23.372;2023-04-16T12:07:07;6.50;;;4.18;;
12625;SDS011;6378;42.684;23.372;2023-04-16T12:09:34;4.80;;;2.60;;
12625;SDS011;6378;42.684;23.372;2023-04-16T12:12:01;6.35;;;2.67;;
12625;SDS011;6378;42.684;23.372;2023-04-16T12:14:27;6.50;;;3.10;;
12625;SDS011;6378;42.684;23.372;2023-04-16T12:16:53;3.70;;;2.30;;
12625;SDS011;6378;42.684;23.372;2023-04-16T12:19:19;3.30;;;2.28;;
12625;SDS011;6378;42.684;23.372;2023-04-16T12:21:45;4.43;;;2.88;;
12625;SDS011;6378;42.684;23.372;2023-04-16T12:24:13;4.95;;;2.60;;
12625;SDS011;6378;42.684;23.372;2023-04-16T12:26:47;3.90;;;2.30;;
12625;SDS011;6378;42.684;23.372;2023-04-16T12:29:17;4.43;;;2.63;;
12625;SDS011;6378;42.684;23.372;2023-04-16T12:31:48;4.25;;;2.40;;
12625;SDS011;6378;42.684;23.372;2023-04-16T12:34:14;10.35;;;3.60;;
12625;SDS011;6378;42.684;23.372;2023-04-16T12:36:41;6.07;;;2.63;;
12625;SDS011;6378;42.684;23.372;2023-04-16T12:39:07;8.43;;;6.00;;
12625;SDS011;6378;42.684;23.372;2023-04-16T12:41:35;4.28;;;3.03;;
12625;SDS011;6378;42.684;23.372;2023-04-16T12:44:05;5.10;;;3.13;;
12625;SDS011;6378;42.684;23.372;2023-04-16T12:46:33;3.92;;;2.80;;
12625;SDS011;6378;42.684;23.372;2023-04-16T12:49:00;5.60;;;2.72;;
12625;SDS011;6378;42.684;23.372;2023-04-16T12:51:25;4.93;;;2.63;;
12625;SDS011;6378;42.684;23.372;2023-04-16T12:53:51;3.58;;;2.60;;
12625;SDS011;6378;42.684;23.372;2023-04-16T12:56:16;6.60;;;3.10;;
12625;SDS011;6378;42.684;23.372;2023-04-16T12:58:42;8.05;;;4.82;;
12625;SDS011;6378;42.684;23.372;2023-04-16T13:01:07;29.33;;;13.68;;
12625;SDS011;6378;42.684;23.372;2023-04-16T13:03:32;7.53;;;4.05;;
12625;SDS011;6378;42.684;23.372;2023-04-16T13:06:01;7.82;;;4.20;;
12625;SDS011;6378;42.684;23.372;2023-04-16T13:08:27;5.05;;;2.75;;
12625;SDS011;6378;42.684;23.372;2023-04-16T13:10:53;3.95;;;2.67;;
12625;SDS011;6378;42.684;23.372;2023-04-16T13:13:18;26.00;;;19.95;;
12625;SDS011;6378;42.684;23.372;2023-04-16T13:15:44;4.18;;;3.00;;
12625;SDS011;6378;42.684;23.372;2023-04-16T13:18:09;5.25;;;2.63;;
12625;SDS011;6378;42.684;23.372;2023-04-16T13:20:34;5.00;;;3.95;;
12625;SDS011;6378;42.684;23.372;2023-04-16T13:23:00;4.32;;;2.70;;
12625;SDS011;6378;42.684;23.372;2023-04-16T13:25:29;7.72;;;4.20;;
12625;SDS011;6378;42.684;23.372;2023-04-16T13:27:55;10.07;;;5.53;;
12625;SDS011;6378;42.684;23.372;2023-04-16T13:30:20;7.78;;;5.45;;
12625;SDS011;6378;42.684;23.372;2023-04-16T13:32:45;9.25;;;4.00;;
12625;SDS011;6378;42.684;23.372;2023-04-16T13:35:11;9.27;;;5.95;;
12625;SDS011;6378;42.684;23.372;2023-04-16T13:37:36;8.50;;;4.93;;
12625;SDS011;6378;42.684;23.372;2023-04-16T13:40:02;7.00;;;4.68;;
12625;SDS011;6378;42.684;23.372;2023-04-16T13:42:28;6.68;;;4.00;;
12625;SDS011;6378;42.684;23.372;2023-04-16T13:44:53;4.88;;;3.75;;
12625;SDS011;6378;42.684;23.372;2023-04-16T13:47:20;6.75;;;2.95;;
12625;SDS011;6378;42.684;23.372;2023-04-16T13:49:45;6.65;;;2.83;;
12625;SDS011;6378;42.684;23.372;2023-04-16T13:52:11;6.57;;;3.40;;
12625;SDS011;6378;42.684;23.372;2023-04-16T13:54:36;6.38;;;4.07;;
12625;SDS011;6378;42.684;23.372;2023-04-16T13:57:02;7.57;;;4.40;;
12625;SDS011;6378;42.684;23.372;2023-04-16T13:59:27;5.47;;;3.47;;
12625;SDS011;6378;42.684;23.372;2023-04-16T14:01:53;4.53;;;2.88;;
12625;SDS011;6378;42.684;23.372;2023-04-16T14:04:18;4.78;;;3.28;;
12625;SDS011;6378;42.684;23.372;2023-04-16T14:06:46;8.85;;;5.60;;
12625;SDS011;6378;42.684;23.372;2023-04-16T14:09:11;5.22;;;3.20;;
12625;SDS011;6378;42.684;23.372;2023-04-16T14:11:36;3.08;;;2.72;;
12625;SDS011;6378;42.684;23.372;2023-04-16T14:14:02;4.68;;;2.67;;
12625;SDS011;6378;42.684;23.372;2023-04-16T14:16:27;4.20;;;3.28;;
12625;SDS011;6378;42.684;23.372;2023-04-16T14:18:53;8.00;;;3.58;;
12625;SDS011;6378;42.684;23.372;2023-04-16T14:21:18;5.00;;;3.20;;
12625;SDS011;6378;42.684;23.372;2023-04-16T14:23:44;5.57;;;3.80;;
12625;SDS011;6378;42.684;23.372;2023-04-16T14:26:09;6.72;;;4.80;;
12625;SDS011;6378;42.684;23.372;2023-04-16T14:28:35;6.57;;;3.90;;
12625;SDS011;6378;42.684;23.372;2023-04-16T14:31:00;4.68;;;3.53;;
12625;SDS011;6378;42.684;23.372;2023-04-16T14:33:25;3.42;;;3.13;;
12625;SDS011;6378;42.684;23.372;2023-04-16T14:35:51;6.90;;;4.10;;
12625;SDS011;6378;42.684;23.372;2023-04-16T14:38:17;4.72;;;3.25;;
12625;SDS011;6378;42.684;23.372;2023-04-16T14:40:42;5.68;;;3.58;;
12625;SDS011;6378;42.684;23.372;2023-04-16T14:43:09;5.38;;;3.92;;
12625;SDS011;6378;42.684;23.372;2023-04-16T14:45:34;9.80;;;4.05;;
12625;SDS011;6378;42.684;23.372;2023-04-16T14:48:03;8.68;;;3.72;;